sensor_id;sensor_type;location;lat;lon;timestamp;pressure;altitude;pressure_sealevel;temperature;humidity
60228;BME280;46091;46.512;6.626;2022-10-26T00:01:36;96910.94;;;17.95;68.53
60228;BME280;46091;46.512;6.626;2022-10-26T00:03:41;96929.53;;;18.02;68.71
60228;BME280;46091;46.512;6.626;2022-10-26T00:05:44;96937.19;;;18.10;68.44
60228;BME280;46091;46.512;6.626;2022-10-26T00:07:47;96945.31;;;18.15;68.47
60228;BME280;46091;46.512;6.626;2022-10-26T00:09:50;96938.44;;;18.19;68.30
60228;BME280;46091;46.512;6.626;2022-10-26T00:11:53;96950.53;;;18.22;68.20
60228;BME280;46091;46.512;6.626;2022-10-26T00:13:56;96940.63;;;18.22;68.15
60228;BME280;46091;46.512;6.626;2022-10-26T00:15:59;96966.25;;;18.18;67.98
60228;BME280;46091;46.512;6.626;2022-10-26T00:18:03;96950.56;;;18.10;68.31
60228;BME280;46091;46.512;6.626;2022-10-26T00:20:07;96967.81;;;18.02;68.38
60228;BME280;46091;46.512;6.626;2022-10-26T00:22:10;96957.09;;;18.02;68.65
60228;BME280;46091;46.512;6.626;2022-10-26T00:24:13;96948.47;;;18.00;68.69
60228;BME280;46091;46.512;6.626;2022-10-26T00:26:20;96927.09;;;18.00;68.54
60228;BME280;46091;46.512;6.626;2022-10-26T00:28:23;96963.97;;;17.98;68.46
60228;BME280;46091;46.512;6.626;2022-10-26T00:30:26;97001.53;;;18.03;68.42
60228;BME280;46091;46.512;6.626;2022-10-26T00:32:29;97038.28;;;18.08;68.40
60228;BME280;46091;46.512;6.626;2022-10-26T00:34:33;97076.91;;;18.12;68.27
60228;BME280;46091;46.512;6.626;2022-10-26T00:36:36;97085.13;;;18.11;68.46
60228;BME280;46091;46.512;6.626;2022-10-26T00:38:39;97064.09;;;18.14;68.48
60228;BME280;46091;46.512;6.626;2022-10-26T00:40:46;97083.41;;;18.16;68.16
60228;BME280;46091;46.512;6.626;2022-10-26T00:42:49;97089.91;;;18.20;68.06
60228;BME280;46091;46.512;6.626;2022-10-26T07:33:21;97316.00;;;16.71;83.90
60228;BME280;46091;46.512;6.626;2022-10-26T07:35:24;97319.63;;;17.02;83.19
60228;BME280;46091;46.512;6.626;2022-10-26T07:37:27;97324.34;;;17.25;82.67
60228;BME280;46091;46.512;6.626;2022-10-26T07:39:30;97317.56;;;17.40;82.09
60228;BME280;46091;46.512;6.626;2022-10-26T07:41:34;97325.00;;;17.57;81.63
60228;BME280;46091;46.512;6.626;2022-10-26T07:43:37;97320.53;;;17.69;81.29
60228;BME280;46091;46.512;6.626;2022-10-26T07:45:40;97326.38;;;17.78;81.10
60228;BME280;46091;46.512;6.626;2022-10-26T07:47:43;97340.03;;;17.88;80.59
60228;BME280;46091;46.512;6.626;2022-10-26T07:49:48;97330.88;;;17.95;80.67
60228;BME280;46091;46.512;6.626;2022-10-26T07:51:51;97334.72;;;17.99;80.41
60228;BME280;46091;46.512;6.626;2022-10-26T07:53:54;97333.03;;;18.05;80.26
60228;BME280;46091;46.512;6.626;2022-10-26T07:55:57;97338.50;;;18.10;79.98
60228;BME280;46091;46.512;6.626;2022-10-26T07:57:59;97336.19;;;18.14;79.74
60228;BME280;46091;46.512;6.626;2022-10-26T08:00:04;97339.22;;;18.17;79.57
60228;BME280;46091;46.512;6.626;2022-10-26T08:02:08;97345.75;;;18.21;79.37
60228;BME280;46091;46.512;6.626;2022-10-26T08:04:12;97337.47;;;18.23;79.18
60228;BME280;46091;46.512;6.626;2022-10-26T08:06:17;97342.41;;;18.26;79.30
60228;BME280;46091;46.512;6.626;2022-10-26T08:08:20;97334.97;;;18.28;79.02
60228;BME280;46091;46.512;6.626;2022-10-26T08:10:23;97337.41;;;18.29;78.82
60228;BME280;46091;46.512;6.626;2022-10-26T08:12:26;97342.28;;;18.32;78.66
60228;BME280;46091;46.512;6.626;2022-10-26T08:14:29;97342.06;;;18.34;78.31
60228;BME280;46091;46.512;6.626;2022-10-26T08:16:32;97339.75;;;18.38;78.34
60228;BME280;46091;46.512;6.626;2022-10-26T08:18:36;97344.06;;;18.39;78.48
60228;BME280;46091;46.512;6.626;2022-10-26T08:20:38;97340.91;;;18.42;78.16
60228;BME280;46091;46.512;6.626;2022-10-26T08:22:42;97339.88;;;18.43;77.86
60228;BME280;46091;46.512;6.626;2022-10-26T08:24:45;97345.47;;;18.41;77.84
60228;BME280;46091;46.512;6.626;2022-10-26T08:26:48;97343.59;;;18.42;77.58
60228;BME280;46091;46.512;6.626;2022-10-26T08:28:51;97347.56;;;18.39;77.31
60228;BME280;46091;46.512;6.626;2022-10-26T08:30:55;97351.84;;;18.40;77.22
60228;BME280;46091;46.512;6.626;2022-10-26T08:32:59;97345.47;;;18.41;77.12
60228;BME280;46091;46.512;6.626;2022-10-26T08:35:01;97350.97;;;18.46;76.73
60228;BME280;46091;46.512;6.626;2022-10-26T08:37:04;97350.72;;;18.48;77.04
60228;BME280;46091;46.512;6.626;2022-10-26T08:39:08;97342.94;;;18.46;76.59
60228;BME280;46091;46.512;6.626;2022-10-26T08:41:12;97351.53;;;18.48;76.41
60228;BME280;46091;46.512;6.626;2022-10-26T08:43:19;97353.16;;;18.49;76.13
60228;BME280;46091;46.512;6.626;2022-10-26T08:45:27;97355.84;;;18.49;76.02
60228;BME280;46091;46.512;6.626;2022-10-26T08:47:41;97360.38;;;18.49;75.73
60228;BME280;46091;46.512;6.626;2022-10-26T08:49:50;97354.78;;;18.50;75.63
60228;BME280;46091;46.512;6.626;2022-10-26T08:51:58;97352.69;;;18.52;75.85
60228;BME280;46091;46.512;6.626;2022-10-26T08:54:07;97365.84;;;18.54;75.33
60228;BME280;46091;46.512;6.626;2022-10-26T08:56:16;97361.06;;;18.56;75.29
60228;BME280;46091;46.512;6.626;2022-10-26T08:58:24;97362.50;;;18.58;75.04
60228;BME280;46091;46.512;6.626;2022-10-26T09:00:29;97372.16;;;18.59;75.15
60228;BME280;46091;46.512;6.626;2022-10-26T09:02:32;97377.06;;;18.62;75.12
60228;BME280;46091;46.512;6.626;2022-10-26T09:04:35;97378.69;;;18.63;74.89
60228;BME280;46091;46.512;6.626;2022-10-26T09:06:46;97384.41;;;18.67;75.01
60228;BME280;46091;46.512;6.626;2022-10-26T09:09:02;97383.38;;;18.68;74.84
60228;BME280;46091;46.512;6.626;2022-10-26T09:11:18;97382.13;;;18.71;74.44
60228;BME280;46091;46.512;6.626;2022-10-26T09:13:33;97380.25;;;18.71;74.49
60228;BME280;46091;46.512;6.626;2022-10-26T09:15:55;97378.16;;;18.73;74.33
60228;BME280;46091;46.512;6.626;2022-10-26T09:18:10;97377.09;;;18.74;74.29
60228;BME280;46091;46.512;6.626;2022-10-26T09:20:28;97384.09;;;18.75;74.11
60228;BME280;46091;46.512;6.626;2022-10-26T09:22:41;97383.03;;;18.76;74.05
60228;BME280;46091;46.512;6.626;2022-10-26T09:24:51;97380.38;;;18.76;73.75
60228;BME280;46091;46.512;6.626;2022-10-26T09:27:01;97376.88;;;18.76;73.75
60228;BME280;46091;46.512;6.626;2022-10-26T09:29:11;97384.91;;;18.76;73.77
60228;BME280;46091;46.512;6.626;2022-10-26T09:31:16;97383.84;;;18.77;73.95
60228;BME280;46091;46.512;6.626;2022-10-26T09:33:22;97386.31;;;18.78;73.57
60228;BME280;46091;46.512;6.626;2022-10-26T09:35:27;97383.63;;;18.78;73.72
60228;BME280;46091;46.512;6.626;2022-10-26T09:37:36;97399.25;;;18.81;73.69
60228;BME280;46091;46.512;6.626;2022-10-26T09:39:45;97388.31;;;18.83;73.18
60228;BME280;46091;46.512;6.626;2022-10-26T09:41:56;97397.00;;;18.78;73.14
60228;BME280;46091;46.512;6.626;2022-10-26T09:44:03;97390.59;;;18.79;73.14
60228;BME280;46091;46.512;6.626;2022-10-26T09:46:14;97391.66;;;18.78;73.33
60228;BME280;46091;46.512;6.626;2022-10-26T09:48:21;97393.09;;;18.81;72.99
60228;BME280;46091;46.512;6.626;2022-10-26T09:50:30;97403.31;;;18.84;72.79
60228;BME280;46091;46.512;6.626;2022-10-26T09:52:34;97402.50;;;18.83;73.15
60228;BME280;46091;46.512;6.626;2022-10-26T09:54:37;97398.78;;;18.84;72.84
60228;BME280;46091;46.512;6.626;2022-10-26T09:56:40;97399.59;;;18.85;72.61
60228;BME280;46091;46.512;6.626;2022-10-26T09:58:49;97396.91;;;18.85;72.87
60228;BME280;46091;46.512;6.626;2022-10-26T10:00:54;97401.22;;;18.86;72.61
60228;BME280;46091;46.512;6.626;2022-10-26T10:02:57;97404.50;;;18.88;72.25
60228;BME280;46091;46.512;6.626;2022-10-26T10:05:00;97408.78;;;18.89;72.44
60228;BME280;46091;46.512;6.626;2022-10-26T10:07:12;97399.94;;;18.88;72.20
60228;BME280;46091;46.512;6.626;2022-10-26T10:09:16;97412.06;;;18.91;72.20
60228;BME280;46091;46.512;6.626;2022-10-26T10:11:19;97404.88;;;18.92;72.20
60228;BME280;46091;46.512;6.626;2022-10-26T10:13:24;97404.38;;;18.95;71.68
60228;BME280;46091;46.512;6.626;2022-10-26T10:15:28;97403.56;;;18.94;71.91
60228;BME280;46091;46.512;6.626;2022-10-26T10:17:32;97408.13;;;18.94;71.66
60228;BME280;46091;46.512;6.626;2022-10-26T10:19:36;97411.84;;;18.93;71.69
60228;BME280;46091;46.512;6.626;2022-10-26T10:21:43;97412.19;;;18.96;71.76
60228;BME280;46091;46.512;6.626;2022-10-26T10:23:47;97410.09;;;18.98;71.28
60228;BME280;46091;46.512;6.626;2022-10-26T10:26:01;97410.66;;;19.00;71.35
60228;BME280;46091;46.512;6.626;2022-10-26T10:28:19;97414.16;;;19.01;71.19
60228;BME280;46091;46.512;6.626;2022-10-26T10:30:29;97419.91;;;19.04;71.25
60228;BME280;46091;46.512;6.626;2022-10-26T10:32:32;97414.31;;;19.06;71.20
60228;BME280;46091;46.512;6.626;2022-10-26T10:34:41;97410.81;;;19.05;70.74
60228;BME280;46091;46.512;6.626;2022-10-26T10:36:44;97412.44;;;19.06;70.86
60228;BME280;46091;46.512;6.626;2022-10-26T10:38:51;97407.91;;;19.07;70.71
60228;BME280;46091;46.512;6.626;2022-10-26T10:40:56;97418.38;;;19.08;70.99
60228;BME280;46091;46.512;6.626;2022-10-26T10:43:04;97415.69;;;19.08;70.75
60228;BME280;46091;46.512;6.626;2022-10-26T10:45:18;97419.78;;;19.11;70.60
60228;BME280;46091;46.512;6.626;2022-10-26T10:47:25;97416.84;;;19.12;70.35
60228;BME280;46091;46.512;6.626;2022-10-26T10:49:29;97420.16;;;19.14;70.48
60228;BME280;46091;46.512;6.626;2022-10-26T10:51:38;97428.75;;;19.16;70.39
60228;BME280;46091;46.512;6.626;2022-10-26T10:53:44;97419.31;;;19.14;70.04
60228;BME280;46091;46.512;6.626;2022-10-26T10:56:00;97412.31;;;19.13;69.86
60228;BME280;46091;46.512;6.626;2022-10-26T10:58:16;97413.13;;;19.13;69.83
60228;BME280;46091;46.512;6.626;2022-10-26T11:00:23;97414.78;;;19.14;70.11
60228;BME280;46091;46.512;6.626;2022-10-26T11:02:46;97410.00;;;19.16;69.65
60228;BME280;46091;46.512;6.626;2022-10-26T11:05:02;97416.75;;;19.19;69.44
60228;BME280;46091;46.512;6.626;2022-10-26T11:07:09;97419.19;;;19.20;69.35
60228;BME280;46091;46.512;6.626;2022-10-26T11:09:15;97419.19;;;19.20;69.38
60228;BME280;46091;46.512;6.626;2022-10-26T11:11:24;97414.66;;;19.21;69.43
60228;BME280;46091;46.512;6.626;2022-10-26T11:13:35;97422.47;;;19.23;68.95
60228;BME280;46091;46.512;6.626;2022-10-26T11:15:41;97412.31;;;19.25;68.97
60228;BME280;46091;46.512;6.626;2022-10-26T11:17:56;97417.47;;;19.26;69.10
60228;BME280;46091;46.512;6.626;2022-10-26T11:20:08;97407.56;;;19.27;68.86
60228;BME280;46091;46.512;6.626;2022-10-26T11:22:18;97409.63;;;19.25;68.81
60228;BME280;46091;46.512;6.626;2022-10-26T11:24:27;97407.56;;;19.27;68.46
60228;BME280;46091;46.512;6.626;2022-10-26T11:26:33;97410.00;;;19.28;68.51
60228;BME280;46091;46.512;6.626;2022-10-26T11:28:48;97416.19;;;19.29;68.49
60228;BME280;46091;46.512;6.626;2022-10-26T11:30:56;97418.84;;;19.29;68.56
60228;BME280;46091;46.512;6.626;2022-10-26T11:33:08;97412.44;;;19.30;68.48
60228;BME280;46091;46.512;6.626;2022-10-26T11:35:16;97409.75;;;19.30;68.31
60228;BME280;46091;46.512;6.626;2022-10-26T11:37:24;97414.06;;;19.31;68.19
60228;BME280;46091;46.512;6.626;2022-10-26T11:39:35;97407.91;;;19.30;68.41
60228;BME280;46091;46.512;6.626;2022-10-26T11:41:44;97409.53;;;19.31;68.20
60228;BME280;46091;46.512;6.626;2022-10-26T11:43:53;97404.50;;;19.35;68.28
60228;BME280;46091;46.512;6.626;2022-10-26T11:46:04;97401.81;;;19.35;68.13
60228;BME280;46091;46.512;6.626;2022-10-26T11:48:14;97397.28;;;19.35;68.03
60228;BME280;46091;46.512;6.626;2022-10-26T11:50:21;97392.72;;;19.36;67.72
60228;BME280;46091;46.512;6.626;2022-10-26T11:52:28;97394.38;;;19.37;67.64
60228;BME280;46091;46.512;6.626;2022-10-26T11:54:34;97396.59;;;19.40;67.80
60228;BME280;46091;46.512;6.626;2022-10-26T11:56:41;97393.09;;;19.39;67.45
60228;BME280;46091;46.512;6.626;2022-10-26T11:58:45;97387.50;;;19.41;67.64
60228;BME280;46091;46.512;6.626;2022-10-26T12:00:51;97392.63;;;19.42;67.48
60228;BME280;46091;46.512;6.626;2022-10-26T12:02:59;97389.13;;;19.42;67.67
60228;BME280;46091;46.512;6.626;2022-10-26T12:05:16;97400.44;;;19.44;67.39
60228;BME280;46091;46.512;6.626;2022-10-26T12:07:24;97393.78;;;19.46;67.03
60228;BME280;46091;46.512;6.626;2022-10-26T12:09:30;97391.91;;;19.47;67.01
60228;BME280;46091;46.512;6.626;2022-10-26T12:11:40;97395.63;;;19.46;67.03
60228;BME280;46091;46.512;6.626;2022-10-26T12:13:50;97394.38;;;19.48;67.26
60228;BME280;46091;46.512;6.626;2022-10-26T12:15:59;97394.38;;;19.48;66.92
60228;BME280;46091;46.512;6.626;2022-10-26T12:18:12;97392.50;;;19.49;66.92
60228;BME280;46091;46.512;6.626;2022-10-26T12:20:50;97386.09;;;19.50;66.71
60228;BME280;46091;46.512;6.626;2022-10-26T12:22:54;97400.88;;;19.53;66.65
60228;BME280;46091;46.512;6.626;2022-10-26T12:25:17;97407.06;;;19.53;66.47
60228;BME280;46091;46.512;6.626;2022-10-26T12:27:30;97397.16;;;19.54;66.75
60228;BME280;46091;46.512;6.626;2022-10-26T12:29:47;97408.69;;;19.54;66.53
60228;BME280;46091;46.512;6.626;2022-10-26T12:31:50;97406.81;;;19.55;66.30
60228;BME280;46091;46.512;6.626;2022-10-26T12:33:53;97407.66;;;19.55;66.13
60228;BME280;46091;46.512;6.626;2022-10-26T12:35:57;97413.03;;;19.55;66.39
60228;BME280;46091;46.512;6.626;2022-10-26T12:38:03;97396.72;;;19.57;65.81
60228;BME280;46091;46.512;6.626;2022-10-26T12:40:39;97397.53;;;19.57;65.92
60228;BME280;46091;46.512;6.626;2022-10-26T12:42:43;97397.53;;;19.57;65.78
60228;BME280;46091;46.512;6.626;2022-10-26T12:45:05;97395.88;;;19.56;66.01
60228;BME280;46091;46.512;6.626;2022-10-26T12:50:18;97391.72;;;19.60;65.74
60228;BME280;46091;46.512;6.626;2022-10-26T12:52:27;97394.16;;;19.62;65.57
60228;BME280;46091;46.512;6.626;2022-10-26T12:54:35;97389.34;;;19.64;65.37
60228;BME280;46091;46.512;6.626;2022-10-26T12:56:50;97391.56;;;19.67;65.17
60228;BME280;46091;46.512;6.626;2022-10-26T12:59:11;97391.09;;;19.70;65.08
60228;BME280;46091;46.512;6.626;2022-10-26T13:01:54;97395.44;;;19.71;64.70
60228;BME280;46091;46.512;6.626;2022-10-26T13:04:07;97400.06;;;19.75;64.84
60228;BME280;46091;46.512;6.626;2022-10-26T13:06:29;97395.50;;;19.76;64.67
60228;BME280;46091;46.512;6.626;2022-10-26T13:08:41;97388.84;;;19.78;64.45
60228;BME280;46091;46.512;6.626;2022-10-26T13:11:00;97388.84;;;19.78;64.48
60228;BME280;46091;46.512;6.626;2022-10-26T13:13:05;97385.47;;;19.83;64.10
60228;BME280;46091;46.512;6.626;2022-10-26T13:15:19;97385.22;;;19.85;64.52
60228;BME280;46091;46.512;6.626;2022-10-26T13:17:24;97390.34;;;19.86;64.45
60228;BME280;46091;46.512;6.626;2022-10-26T13:19:31;97385.00;;;19.86;64.37
60228;BME280;46091;46.512;6.626;2022-10-26T13:21:45;97383.94;;;19.87;64.24
60228;BME280;46091;46.512;6.626;2022-10-26T13:23:57;97388.81;;;19.90;63.98
60228;BME280;46091;46.512;6.626;2022-10-26T13:26:07;97385.09;;;19.91;64.02
60228;BME280;46091;46.512;6.626;2022-10-26T13:28:31;97381.13;;;19.94;64.03
60228;BME280;46091;46.512;6.626;2022-10-26T13:30:41;97380.88;;;19.95;64.08
60228;BME280;46091;46.512;6.626;2022-10-26T13:32:48;97376.91;;;19.98;63.91
60228;BME280;46091;46.512;6.626;2022-10-26T13:34:55;97375.84;;;19.99;63.67
60228;BME280;46091;46.512;6.626;2022-10-26T13:37:06;97363.50;;;19.98;63.47
60228;BME280;46091;46.512;6.626;2022-10-26T13:39:14;97361.63;;;19.98;63.87
60228;BME280;46091;46.512;6.626;2022-10-26T13:41:24;97365.13;;;19.99;63.37
60228;BME280;46091;46.512;6.626;2022-10-26T13:43:29;97360.81;;;19.98;63.80
60228;BME280;46091;46.512;6.626;2022-10-26T13:45:38;97357.31;;;19.97;63.37
60228;BME280;46091;46.512;6.626;2022-10-26T13:47:45;97361.38;;;20.00;63.38
60228;BME280;46091;46.512;6.626;2022-10-26T13:49:53;97361.50;;;20.05;63.36
60228;BME280;46091;46.512;6.626;2022-10-26T13:52:00;97363.69;;;20.08;63.46
60228;BME280;46091;46.512;6.626;2022-10-26T13:54:15;97362.06;;;20.07;63.17
60228;BME280;46091;46.512;6.626;2022-10-26T13:56:26;97365.81;;;20.06;63.25
60228;BME280;46091;46.512;6.626;2022-10-26T13:58:41;97362.63;;;20.09;63.20
60228;BME280;46091;46.512;6.626;2022-10-26T14:01:00;97364.25;;;20.10;63.42
60228;BME280;46091;46.512;6.626;2022-10-26T14:03:13;97363.44;;;20.10;62.84
60228;BME280;46091;46.512;6.626;2022-10-26T14:05:24;97365.31;;;20.09;63.38
60228;BME280;46091;46.512;6.626;2022-10-26T14:07:33;97360.19;;;20.08;63.23
60228;BME280;46091;46.512;6.626;2022-10-26T14:09:56;97365.31;;;20.09;63.32
60228;BME280;46091;46.512;6.626;2022-10-26T14:12:00;97358.88;;;20.10;62.79
60228;BME280;46091;46.512;6.626;2022-10-26T14:14:04;97362.63;;;20.09;63.06
60228;BME280;46091;46.512;6.626;2022-10-26T14:16:08;97361.56;;;20.10;63.22
60228;BME280;46091;46.512;6.626;2022-10-26T14:18:19;97357.25;;;20.09;63.09
60228;BME280;46091;46.512;6.626;2022-10-26T14:20:24;97355.63;;;20.08;63.32
60228;BME280;46091;46.512;6.626;2022-10-26T14:22:29;97352.94;;;20.08;62.86
60228;BME280;46091;46.512;6.626;2022-10-26T14:24:37;97356.69;;;20.07;62.81
60228;BME280;46091;46.512;6.626;2022-10-26T14:26:50;97358.56;;;20.06;62.86
60228;BME280;46091;46.512;6.626;2022-10-26T14:28:54;97363.69;;;20.08;62.81
60228;BME280;46091;46.512;6.626;2022-10-26T14:31:10;97357.50;;;20.08;62.93
60228;BME280;46091;46.512;6.626;2022-10-26T14:33:26;97364.50;;;20.09;62.99
60228;BME280;46091;46.512;6.626;2022-10-26T14:35:32;97358.88;;;20.10;63.04
60228;BME280;46091;46.512;6.626;2022-10-26T14:37:40;97352.47;;;20.11;62.87
60228;BME280;46091;46.512;6.626;2022-10-26T14:39:46;97362.97;;;20.13;62.87
60228;BME280;46091;46.512;6.626;2022-10-26T14:41:51;97349.78;;;20.11;62.57
60228;BME280;46091;46.512;6.626;2022-10-26T14:43:57;97355.97;;;20.12;62.79
60228;BME280;46091;46.512;6.626;2022-10-26T14:46:01;97356.19;;;20.10;62.59
60228;BME280;46091;46.512;6.626;2022-10-26T14:48:05;97356.44;;;20.09;62.55
60228;BME280;46091;46.512;6.626;2022-10-26T14:50:17;97358.81;;;20.05;62.99
60228;BME280;46091;46.512;6.626;2022-10-26T14:52:22;97361.50;;;20.05;62.75
60228;BME280;46091;46.512;6.626;2022-10-26T14:54:31;97358.56;;;20.06;62.45
60228;BME280;46091;46.512;6.626;2022-10-26T14:56:38;97368.47;;;20.06;62.61
60228;BME280;46091;46.512;6.626;2022-10-26T14:58:43;97353.66;;;20.03;62.50
60228;BME280;46091;46.512;6.626;2022-10-26T15:00:46;97353.91;;;20.02;62.52
60228;BME280;46091;46.512;6.626;2022-10-26T15:02:53;97354.47;;;20.04;62.60
60228;BME280;46091;46.512;6.626;2022-10-26T15:04:58;97355.53;;;20.03;62.41
60228;BME280;46091;46.512;6.626;2022-10-26T15:07:14;97354.94;;;20.01;62.29
60228;BME280;46091;46.512;6.626;2022-10-26T15:09:36;97360.31;;;20.01;62.53
60228;BME280;46091;46.512;6.626;2022-10-26T15:11:47;97353.91;;;20.02;62.02
60228;BME280;46091;46.512;6.626;2022-10-26T15:13:52;97357.41;;;20.02;62.33
60228;BME280;46091;46.512;6.626;2022-10-26T15:15:57;97353.91;;;20.02;62.08
60228;BME280;46091;46.512;6.626;2022-10-26T15:18:16;97351.22;;;20.02;62.19
60228;BME280;46091;46.512;6.626;2022-10-26T15:20:24;97362.19;;;20.00;61.95
60228;BME280;46091;46.512;6.626;2022-10-26T15:22:27;97363.00;;;20.01;61.87
60228;BME280;46091;46.512;6.626;2022-10-26T15:24:35;97362.19;;;20.00;62.01
60228;BME280;46091;46.512;6.626;2022-10-26T15:26:41;97365.69;;;20.01;61.83
60228;BME280;46091;46.512;6.626;2022-10-26T15:28:48;97372.69;;;20.02;61.72
60228;BME280;46091;46.512;6.626;2022-10-26T15:31:02;97371.06;;;20.01;61.96
60228;BME280;46091;46.512;6.626;2022-10-26T15:33:17;97370.25;;;20.00;61.97
60228;BME280;46091;46.512;6.626;2022-10-26T15:35:31;97368.38;;;20.01;61.87
60228;BME280;46091;46.512;6.626;2022-10-26T15:37:34;97374.56;;;20.01;61.69
60228;BME280;46091;46.512;6.626;2022-10-26T15:39:36;97371.06;;;20.01;62.12
60228;BME280;46091;46.512;6.626;2022-10-26T15:41:44;97370.47;;;19.99;62.12
60228;BME280;46091;46.512;6.626;2022-10-26T15:43:48;97366.97;;;19.98;62.22
60228;BME280;46091;46.512;6.626;2022-10-26T15:45:52;97372.91;;;20.00;62.10
60228;BME280;46091;46.512;6.626;2022-10-26T15:47:59;97376.41;;;20.01;62.18
60228;BME280;46091;46.512;6.626;2022-10-26T15:50:15;97381.78;;;20.01;62.32
60228;BME280;46091;46.512;6.626;2022-10-26T15:52:18;97380.16;;;20.00;62.21
60228;BME280;46091;46.512;6.626;2022-10-26T15:54:21;97388.22;;;20.00;62.20
60228;BME280;46091;46.512;6.626;2022-10-26T15:56:24;97383.91;;;19.99;62.45
60228;BME280;46091;46.512;6.626;2022-10-26T15:58:32;97383.09;;;19.98;62.45
60228;BME280;46091;46.512;6.626;2022-10-26T16:00:36;97383.09;;;19.98;62.76
60228;BME280;46091;46.512;6.626;2022-10-26T16:02:41;97383.91;;;19.99;62.58
60228;BME280;46091;46.512;6.626;2022-10-26T16:04:45;97390.09;;;19.99;62.67
60228;BME280;46091;46.512;6.626;2022-10-26T16:06:48;97389.84;;;20.01;62.41
60228;BME280;46091;46.512;6.626;2022-10-26T16:08:52;97396.25;;;20.00;62.41
60228;BME280;46091;46.512;6.626;2022-10-26T16:10:57;97397.31;;;19.99;62.59
60228;BME280;46091;46.512;6.626;2022-10-26T16:13:00;97401.63;;;20.00;62.53
60228;BME280;46091;46.512;6.626;2022-10-26T16:15:03;97406.19;;;19.99;62.70
60228;BME280;46091;46.512;6.626;2022-10-26T16:17:07;97396.75;;;19.97;62.88
60228;BME280;46091;46.512;6.626;2022-10-26T16:19:10;97394.06;;;19.97;62.72
60228;BME280;46091;46.512;6.626;2022-10-26T16:21:34;97398.84;;;19.95;62.90
60228;BME280;46091;46.512;6.626;2022-10-26T16:23:37;97401.53;;;19.95;62.56
60228;BME280;46091;46.512;6.626;2022-10-26T16:25:42;97399.09;;;19.93;62.50
60228;BME280;46091;46.512;6.626;2022-10-26T16:27:46;97399.56;;;19.90;62.83
60228;BME280;46091;46.512;6.626;2022-10-26T16:29:49;97403.28;;;19.89;62.69
60228;BME280;46091;46.512;6.626;2022-10-26T16:31:52;97403.53;;;19.88;62.73
60228;BME280;46091;46.512;6.626;2022-10-26T16:33:55;97403.53;;;19.88;63.07
60228;BME280;46091;46.512;6.626;2022-10-26T16:36:05;97410.78;;;19.87;62.72
60228;BME280;46091;46.512;6.626;2022-10-26T16:38:09;97416.38;;;19.86;63.13
60228;BME280;46091;46.512;6.626;2022-10-26T16:40:13;97412.06;;;19.85;63.27
60228;BME280;46091;46.512;6.626;2022-10-26T16:42:16;97413.13;;;19.84;62.91
60228;BME280;46091;46.512;6.626;2022-10-26T16:44:19;97420.56;;;19.82;63.25
60228;BME280;46091;46.512;6.626;2022-10-26T16:46:22;97419.75;;;19.81;63.12
60228;BME280;46091;46.512;6.626;2022-10-26T16:48:25;97415.44;;;19.80;63.46
60228;BME280;46091;46.512;6.626;2022-10-26T16:50:27;97417.31;;;19.80;63.37
60228;BME280;46091;46.512;6.626;2022-10-26T16:52:37;97420.22;;;19.78;63.43
60228;BME280;46091;46.512;6.626;2022-10-26T16:54:42;97418.38;;;19.78;63.44
60228;BME280;46091;46.512;6.626;2022-10-26T16:56:44;97427.47;;;19.77;63.42
60228;BME280;46091;46.512;6.626;2022-10-26T16:58:47;97420.22;;;19.78;63.56
60228;BME280;46091;46.512;6.626;2022-10-26T17:00:53;97423.16;;;19.76;63.25
60228;BME280;46091;46.512;6.626;2022-10-26T17:02:56;97432.03;;;19.77;63.49
60228;BME280;46091;46.512;6.626;2022-10-26T17:05:00;97431.44;;;19.75;63.53
60228;BME280;46091;46.512;6.626;2022-10-26T17:07:09;97434.38;;;19.73;63.69
60228;BME280;46091;46.512;6.626;2022-10-26T17:09:12;97435.41;;;19.72;63.52
60228;BME280;46091;46.512;6.626;2022-10-26T17:11:18;97436.47;;;19.71;63.46
60228;BME280;46091;46.512;6.626;2022-10-26T17:13:21;97434.00;;;19.70;63.57
60228;BME280;46091;46.512;6.626;2022-10-26T17:15:24;97430.28;;;19.71;63.43
60228;BME280;46091;46.512;6.626;2022-10-26T17:17:29;97433.78;;;19.71;63.81
60228;BME280;46091;46.512;6.626;2022-10-26T17:19:32;97435.41;;;19.72;63.72
60228;BME280;46091;46.512;6.626;2022-10-26T17:21:36;97432.75;;;19.72;63.36
60228;BME280;46091;46.512;6.626;2022-10-26T17:23:39;97441.84;;;19.71;63.62
60228;BME280;46091;46.512;6.626;2022-10-26T17:25:42;97442.41;;;19.73;63.76
60228;BME280;46091;46.512;6.626;2022-10-26T17:27:46;97452.09;;;19.74;63.49
60228;BME280;46091;46.512;6.626;2022-10-26T17:29:49;97453.72;;;19.75;63.89
60228;BME280;46091;46.512;6.626;2022-10-26T17:31:52;97459.09;;;19.75;63.42
60228;BME280;46091;46.512;6.626;2022-10-26T17:33:56;97458.50;;;19.73;63.78
60228;BME280;46091;46.512;6.626;2022-10-26T17:35:59;97459.09;;;19.75;64.01
60228;BME280;46091;46.512;6.626;2022-10-26T17:38:03;97454.19;;;19.72;63.69
60228;BME280;46091;46.512;6.626;2022-10-26T17:40:06;97455.25;;;19.71;63.79
60228;BME280;46091;46.512;6.626;2022-10-26T17:42:09;97452.56;;;19.71;63.87
60228;BME280;46091;46.512;6.626;2022-10-26T17:44:13;97465.97;;;19.71;63.55
60228;BME280;46091;46.512;6.626;2022-10-26T17:46:18;97468.66;;;19.71;63.61
60228;BME280;46091;46.512;6.626;2022-10-26T17:48:21;97467.00;;;19.70;63.66
60228;BME280;46091;46.512;6.626;2022-10-26T17:50:24;97473.41;;;19.69;64.11
60228;BME280;46091;46.512;6.626;2022-10-26T17:52:27;97469.94;;;19.69;63.75
60228;BME280;46091;46.512;6.626;2022-10-26T17:54:30;97469.94;;;19.69;63.82
60228;BME280;46091;46.512;6.626;2022-10-26T17:56:34;97466.44;;;19.68;64.06
60228;BME280;46091;46.512;6.626;2022-10-26T17:58:37;97469.94;;;19.69;64.13
60228;BME280;46091;46.512;6.626;2022-10-26T18:00:41;97473.41;;;19.69;63.68
60228;BME280;46091;46.512;6.626;2022-10-26T18:02:50;97478.22;;;19.67;64.04
60228;BME280;46091;46.512;6.626;2022-10-26T18:04:53;97472.84;;;19.67;63.95
60228;BME280;46091;46.512;6.626;2022-10-26T18:06:56;97478.22;;;19.67;63.88